createdAt,value
2023-06-17T00:00:58.918Z,48.39
2023-06-17T00:03:26.143Z,48.05
2023-06-17T00:05:53.542Z,48.28
2023-06-17T00:08:21.462Z,48.19
2023-06-17T00:10:48.889Z,48.25
2023-06-17T00:13:22.279Z,48.43
2023-06-17T00:15:52.380Z,48.53
2023-06-17T00:18:21.231Z,48.66
2023-06-17T00:20:49.614Z,48.84
2023-06-17T00:23:17.057Z,49.52
2023-06-17T00:25:44.241Z,49.26
2023-06-17T00:28:11.441Z,49.38
2023-06-17T00:30:38.568Z,49.18
2023-06-17T00:33:06.385Z,49.38
2023-06-17T00:35:36.228Z,49.03
2023-06-17T00:38:03.454Z,49.07
2023-06-17T00:40:33.182Z,49.10
2023-06-17T00:43:00.512Z,49.34
2023-06-17T00:45:27.692Z,49.58
2023-06-17T00:47:55.060Z,49.77
2023-06-17T00:50:22.710Z,49.56
2023-06-17T00:52:54.061Z,50.02
2023-06-17T00:55:22.485Z,50.14
2023-06-17T00:57:50.112Z,50.27
2023-06-17T01:00:17.562Z,50.34
2023-06-17T01:02:46.653Z,50.21
2023-06-17T01:05:18.471Z,50.50
2023-06-17T01:08:04.234Z,51.19
2023-06-17T01:10:41.557Z,50.88
2023-06-17T01:13:10.523Z,51.00
2023-06-17T01:15:38.335Z,50.86
2023-06-17T01:18:08.529Z,51.04
2023-06-17T01:20:37.462Z,51.05
2023-06-17T01:23:06.759Z,51.27
2023-06-17T01:25:36.048Z,51.33
2023-06-17T01:28:20.731Z,51.76
2023-06-17T01:30:49.418Z,51.37
2023-06-17T01:33:17.244Z,51.49
2023-06-17T01:35:56.209Z,51.64
2023-06-17T01:38:52.353Z,51.75
2023-06-17T01:41:25.635Z,51.31
2023-06-17T01:43:55.304Z,51.50
2023-06-17T01:46:23.854Z,51.43
2023-06-17T01:48:54.979Z,51.66
2023-06-17T01:51:22.524Z,51.47
2023-06-17T01:53:49.858Z,51.73
2023-06-17T01:56:16.961Z,51.47
2023-06-17T01:58:44.100Z,51.54
2023-06-17T02:01:12.688Z,51.50
2023-06-17T02:03:43.605Z,51.73
2023-06-17T02:06:11.794Z,51.65
2023-06-17T02:08:39.770Z,51.46
2023-06-17T02:11:07.198Z,51.51
2023-06-17T02:13:34.479Z,51.76
2023-06-17T02:16:01.883Z,51.61
2023-06-17T02:18:29.436Z,51.92
2023-06-17T02:20:56.606Z,51.95
2023-06-17T02:23:23.818Z,51.94
2023-06-17T02:25:53.752Z,51.89
2023-06-17T02:28:20.898Z,51.67
2023-06-17T02:30:48.133Z,51.75
2023-06-17T02:33:19.353Z,51.74
2023-06-17T02:35:47.528Z,52.02
2023-06-17T02:38:15.591Z,52.11
2023-06-17T02:40:42.871Z,52.03
2023-06-17T02:43:10.200Z,51.95
2023-06-17T02:45:37.976Z,52.08
2023-06-17T02:48:05.217Z,52.33
2023-06-17T02:50:32.421Z,52.48
2023-06-17T02:52:59.880Z,52.44
2023-06-17T02:55:30.728Z,52.18
2023-06-17T02:58:02.270Z,52.20
2023-06-17T03:00:37.330Z,52.01
2023-06-17T03:03:04.586Z,52.34
2023-06-17T03:05:31.928Z,52.27
2023-06-17T03:07:59.095Z,52.03
2023-06-17T03:10:26.284Z,52.12
2023-06-17T03:13:02.995Z,51.70
2023-06-17T03:15:30.000Z,51.86
2023-06-17T03:17:57.976Z,51.53
2023-06-17T03:20:29.907Z,51.39
2023-06-17T03:22:57.424Z,51.59
2023-06-17T03:25:24.744Z,51.55
2023-06-17T03:27:54.098Z,51.49
2023-06-17T03:30:24.633Z,51.11
2023-06-17T03:32:51.949Z,51.16
2023-06-17T03:35:19.129Z,51.03
2023-06-17T03:37:46.443Z,50.39
2023-06-17T03:40:14.993Z,50.74
2023-06-17T03:42:43.388Z,50.73
2023-06-17T03:45:11.335Z,50.85
2023-06-17T03:47:38.730Z,50.78
2023-06-17T03:50:07.716Z,50.67
2023-06-17T03:52:35.283Z,50.02
2023-06-17T03:55:02.944Z,49.82
2023-06-17T03:57:31.090Z,49.13
2023-06-17T03:59:58.739Z,49.10
2023-06-17T04:02:26.187Z,49.00
2023-06-17T04:04:53.980Z,48.44
2023-06-17T04:07:22.104Z,48.48
2023-06-17T04:10:01.967Z,48.13
2023-06-17T04:12:36.697Z,47.87
2023-06-17T04:15:07.845Z,48.16
2023-06-17T04:17:39.363Z,48.33
2023-06-17T04:20:16.152Z,47.78
2023-06-17T04:22:44.529Z,47.45
2023-06-17T04:25:13.344Z,47.40
2023-06-17T04:27:45.741Z,47.10
2023-06-17T04:30:15.201Z,46.87
2023-06-17T04:32:44.024Z,46.59
2023-06-17T04:35:14.148Z,46.04
2023-06-17T04:37:55.187Z,45.71
2023-06-17T04:40:26.660Z,45.35
2023-06-17T04:42:54.101Z,45.30
2023-06-17T04:45:23.604Z,44.89
2023-06-17T04:47:56.932Z,44.97
2023-06-17T04:50:25.187Z,44.62
2023-06-17T04:52:53.262Z,45.08
2023-06-17T04:55:23.400Z,45.07
2023-06-17T04:57:51.517Z,45.14
2023-06-17T05:00:38.541Z,45.32
2023-06-17T05:03:06.897Z,44.89
2023-06-17T05:05:34.131Z,44.50
2023-06-17T05:08:01.296Z,44.31
2023-06-17T05:10:28.623Z,44.54
2023-06-17T05:12:55.770Z,44.40
2023-06-17T05:15:23.148Z,44.52
2023-06-17T05:17:51.099Z,44.42
2023-06-17T05:20:18.912Z,44.09
2023-06-17T05:22:46.793Z,44.39
2023-06-17T05:25:14.002Z,44.50
2023-06-17T05:27:41.200Z,44.26
2023-06-17T05:30:10.045Z,44.00
2023-06-17T05:32:41.090Z,44.03
2023-06-17T05:35:08.782Z,43.70
2023-06-17T05:37:35.944Z,43.68
2023-06-17T05:40:05.071Z,43.51
2023-06-17T05:42:33.931Z,43.20
2023-06-17T05:45:01.289Z,42.72
2023-06-17T05:47:31.813Z,42.67
2023-06-17T05:49:58.964Z,42.57
2023-06-17T05:52:28.135Z,42.96
2023-06-17T05:54:55.261Z,42.72
2023-06-17T05:57:22.636Z,42.14
2023-06-17T05:59:49.982Z,41.96
2023-06-17T06:02:18.505Z,41.65
2023-06-17T06:04:45.737Z,41.75
2023-06-17T06:07:13.853Z,41.39
2023-06-17T06:09:41.350Z,41.14
2023-06-17T06:12:09.083Z,40.57
2023-06-17T06:14:37.075Z,40.45
2023-06-17T06:17:05.717Z,40.22
2023-06-17T06:19:32.835Z,40.20
2023-06-17T06:21:59.968Z,40.05
2023-06-17T06:24:27.197Z,39.97
2023-06-17T06:26:54.478Z,39.93
2023-06-17T06:29:22.096Z,39.15
2023-06-17T06:31:49.243Z,38.72
2023-06-17T06:34:18.812Z,38.87
2023-06-17T06:36:46.853Z,38.60
2023-06-17T06:39:15.633Z,38.81
2023-06-17T06:41:43.635Z,38.66
2023-06-17T06:44:26.928Z,38.94
2023-06-17T06:46:56.808Z,38.74
2023-06-17T06:49:23.999Z,38.74
2023-06-17T06:51:51.176Z,38.83
2023-06-17T06:54:18.551Z,38.28
2023-06-17T06:56:46.520Z,37.97
2023-06-17T06:59:13.849Z,37.21
2023-06-17T07:01:40.971Z,37.13
2023-06-17T07:04:08.538Z,36.51
2023-06-17T07:06:36.396Z,36.39
2023-06-17T07:09:07.637Z,36.38
2023-06-17T07:11:35.808Z,35.78
2023-06-17T07:14:03.269Z,36.14
2023-06-17T07:16:31.070Z,35.65
2023-06-17T07:18:58.290Z,36.07
2023-06-17T07:21:25.551Z,35.36
2023-06-17T07:23:52.787Z,35.88
2023-06-17T07:26:21.216Z,34.88
2023-06-17T07:28:48.798Z,34.62
2023-06-17T07:31:16.025Z,34.67
2023-06-17T07:33:43.193Z,34.23
2023-06-17T07:36:10.337Z,33.42
2023-06-17T07:38:37.832Z,33.40
2023-06-17T07:41:05.044Z,33.16
2023-06-17T07:43:32.227Z,33.02
2023-06-17T07:45:59.449Z,33.17
2023-06-17T07:48:26.635Z,32.92
2023-06-17T07:50:53.741Z,32.51
2023-06-17T07:53:21.185Z,31.95
2023-06-17T07:55:49.199Z,32.32
2023-06-17T07:58:16.427Z,31.91
2023-06-17T08:00:43.616Z,31.42
2023-06-17T08:03:11.107Z,31.21
2023-06-17T08:05:38.337Z,30.41
2023-06-17T08:08:05.683Z,30.57
2023-06-17T08:10:33.045Z,30.57
2023-06-17T08:13:00.176Z,30.19
2023-06-17T08:15:28.425Z,30.80
2023-06-17T08:17:55.778Z,31.20
2023-06-17T08:20:23.321Z,30.69
2023-06-17T08:22:50.832Z,29.94
2023-06-17T08:25:17.958Z,29.23
2023-06-17T08:27:49.202Z,28.95
2023-06-17T08:30:16.459Z,28.89
2023-06-17T08:32:43.782Z,28.78
2023-06-17T08:35:11.067Z,28.83
2023-06-17T08:37:38.186Z,28.47
2023-06-17T08:40:05.870Z,28.47
2023-06-17T08:42:34.143Z,27.92
2023-06-17T08:45:01.761Z,27.85
2023-06-17T08:47:33.586Z,27.85
2023-06-17T08:50:01.183Z,27.51
2023-06-17T08:52:34.547Z,27.19
2023-06-17T08:55:03.005Z,27.49
2023-06-17T08:57:33.592Z,27.39
2023-06-17T09:00:01.144Z,27.38
2023-06-17T09:02:35.703Z,26.85
2023-06-17T09:05:03.667Z,27.18
2023-06-17T09:07:32.085Z,27.07
2023-06-17T09:10:10.214Z,27.20
2023-06-17T09:12:40.666Z,27.18
2023-06-17T09:15:09.553Z,27.15
2023-06-17T09:17:40.195Z,27.76
2023-06-17T09:20:17.732Z,27.42
2023-06-17T09:22:47.911Z,27.73
2023-06-17T09:25:16.432Z,27.59
2023-06-17T09:30:25.392Z,27.38
2023-06-17T09:32:53.780Z,26.93
2023-06-17T09:35:21.215Z,26.75
2023-06-17T09:38:03.253Z,26.73
2023-06-17T09:40:34.317Z,26.83
2023-06-17T09:43:20.735Z,26.69
2023-06-17T09:45:56.125Z,26.49
2023-06-17T09:48:26.183Z,26.39
2023-06-17T09:50:58.628Z,26.17
2023-06-17T09:53:30.922Z,26.42
2023-06-17T09:56:01.359Z,26.31
2023-06-17T09:58:30.527Z,26.63
2023-06-17T10:00:58.813Z,26.89
2023-06-17T10:03:26.104Z,26.70
2023-06-17T10:05:56.512Z,26.47
2023-06-17T10:08:25.337Z,26.03
2023-06-17T10:10:53.049Z,26.28
2023-06-17T10:13:21.762Z,26.20
2023-06-17T10:15:50.864Z,25.67
2023-06-17T10:18:20.151Z,25.81
2023-06-17T10:20:50.475Z,25.98
2023-06-17T10:23:22.088Z,26.08
2023-06-17T10:25:49.343Z,25.92
2023-06-17T10:28:17.076Z,26.00
2023-06-17T10:30:46.153Z,26.34
2023-06-17T10:33:13.774Z,26.21
2023-06-17T10:35:45.621Z,24.92
2023-06-17T10:38:34.723Z,25.44
2023-06-17T10:41:02.985Z,25.35
2023-06-17T10:43:37.556Z,25.03
2023-06-17T10:46:05.071Z,25.46
2023-06-17T10:48:36.693Z,25.63
2023-06-17T10:51:09.872Z,26.24
2023-06-17T10:53:38.012Z,27.09
2023-06-17T10:56:08.235Z,26.80
2023-06-17T10:58:37.501Z,26.34
2023-06-17T11:01:07.407Z,26.49
2023-06-17T11:03:35.991Z,26.01
2023-06-17T11:06:05.136Z,26.33
2023-06-17T11:08:33.942Z,26.34
2023-06-17T11:11:18.151Z,26.21
2023-06-17T11:13:51.978Z,26.25
2023-06-17T11:16:19.774Z,26.85
2023-06-17T11:18:49.995Z,26.71
2023-06-17T11:21:18.883Z,26.64
2023-06-17T11:23:46.142Z,26.79
2023-06-17T11:26:14.414Z,26.61
2023-06-17T11:28:41.740Z,26.73
2023-06-17T11:31:09.490Z,26.39
2023-06-17T11:33:40.003Z,26.85
2023-06-17T11:36:11.312Z,26.35
2023-06-17T11:38:39.550Z,26.81
2023-06-17T11:41:06.949Z,26.66
2023-06-17T11:43:34.254Z,26.11
2023-06-17T11:46:03.556Z,26.09
2023-06-17T11:48:35.043Z,26.05
2023-06-17T11:51:02.822Z,25.94
2023-06-17T11:53:39.646Z,25.73
2023-06-17T11:56:08.340Z,25.54
2023-06-17T11:58:39.905Z,25.27
2023-06-17T12:01:08.648Z,25.51
2023-06-17T12:03:38.234Z,25.33
2023-06-17T12:06:06.300Z,25.17
2023-06-17T12:08:35.359Z,25.40
2023-06-17T12:11:26.643Z,24.60
2023-06-17T12:13:55.707Z,24.60
2023-06-17T12:16:25.037Z,25.08
2023-06-17T12:18:53.761Z,24.65
2023-06-17T12:21:22.328Z,24.45
2023-06-17T12:23:54.567Z,24.51
2023-06-17T12:26:26.086Z,24.72
2023-06-17T12:28:54.493Z,24.55
2023-06-17T12:31:23.251Z,24.17
2023-06-17T12:33:51.099Z,24.16
2023-06-17T12:36:18.928Z,23.87
2023-06-17T12:38:47.353Z,24.12
2023-06-17T12:41:14.473Z,24.03
2023-06-17T12:43:42.333Z,24.19
2023-06-17T12:46:09.961Z,24.16
2023-06-17T12:48:37.502Z,24.25
2023-06-17T12:51:05.121Z,24.27
2023-06-17T12:53:32.388Z,24.50
2023-06-17T12:56:00.240Z,24.44
2023-06-17T12:58:27.771Z,24.52
2023-06-17T13:00:55.606Z,24.40
2023-06-17T13:03:22.914Z,24.18
2023-06-17T13:05:52.772Z,24.12
2023-06-17T13:08:20.095Z,24.00
2023-06-17T13:10:47.812Z,24.29
2023-06-17T13:13:14.994Z,23.99
2023-06-17T13:15:42.177Z,24.00
2023-06-17T13:18:09.740Z,24.12
2023-06-17T13:20:37.230Z,24.41
2023-06-17T13:23:05.698Z,24.40
2023-06-17T13:25:33.032Z,24.36
2023-06-17T13:28:00.250Z,24.20
2023-06-17T13:30:27.580Z,24.61
2023-06-17T13:32:54.715Z,24.31
2023-06-17T13:35:22.603Z,25.09
2023-06-17T13:37:50.533Z,24.92
2023-06-17T13:40:18.055Z,24.91
2023-06-17T13:42:45.344Z,24.63
2023-06-17T13:45:17.147Z,24.91
2023-06-17T13:47:44.234Z,24.65
2023-06-17T13:50:11.467Z,24.79
2023-06-17T13:52:38.615Z,24.92
2023-06-17T13:55:06.139Z,24.93
2023-06-17T13:57:33.198Z,24.82
2023-06-17T14:00:00.449Z,25.12
2023-06-17T14:02:27.703Z,25.14
2023-06-17T14:04:55.707Z,25.25
2023-06-17T14:07:22.902Z,25.03
2023-06-17T14:09:50.027Z,25.39
2023-06-17T14:12:17.245Z,24.98
2023-06-17T14:14:46.168Z,25.25
2023-06-17T14:17:14.490Z,25.56
2023-06-17T14:19:41.581Z,25.47
2023-06-17T14:22:10.269Z,26.00
2023-06-17T14:24:39.876Z,26.09
2023-06-17T14:27:34.796Z,25.76
2023-06-17T14:30:03.517Z,26.38
2023-06-17T14:32:35.052Z,26.50
2023-06-17T14:35:02.297Z,26.41
2023-06-17T14:37:33.957Z,26.05
2023-06-17T14:40:01.590Z,26.70
2023-06-17T14:42:32.560Z,26.63
2023-06-17T14:44:59.936Z,26.22
2023-06-17T14:47:27.420Z,26.22
2023-06-17T14:49:54.556Z,26.59
2023-06-17T14:52:21.628Z,26.40
2023-06-17T14:54:48.727Z,26.30
2023-06-17T14:57:15.809Z,26.64
2023-06-17T14:59:43.196Z,27.06
2023-06-17T15:02:22.671Z,26.94
2023-06-17T15:04:49.879Z,26.88
2023-06-17T15:07:16.996Z,27.34
2023-06-17T15:09:44.638Z,27.27
2023-06-17T15:12:15.397Z,27.76
2023-06-17T15:14:42.675Z,27.37
2023-06-17T15:17:09.868Z,27.64
2023-06-17T15:19:37.991Z,27.67
2023-06-17T15:22:05.515Z,27.69
2023-06-17T15:24:32.808Z,27.75
2023-06-17T15:27:00.102Z,28.32
2023-06-17T15:29:27.253Z,28.65
2023-06-17T15:31:54.350Z,29.34
2023-06-17T15:34:21.521Z,29.55
2023-06-17T15:36:48.659Z,29.38
2023-06-17T15:39:19.776Z,29.95
2023-06-17T15:41:48.520Z,29.55
2023-06-17T15:44:16.875Z,29.73
2023-06-17T15:46:44.525Z,30.00
2023-06-17T15:49:12.070Z,30.80
2023-06-17T15:51:39.593Z,30.89
2023-06-17T15:54:07.132Z,30.84
2023-06-17T15:56:37.725Z,30.79
2023-06-17T15:59:05.790Z,31.12
2023-06-17T16:01:33.711Z,30.93
2023-06-17T16:04:30.260Z,31.21
2023-06-17T16:06:57.332Z,30.82
2023-06-17T16:09:24.458Z,31.46
2023-06-17T16:11:51.870Z,31.07
2023-06-17T16:14:19.008Z,31.41
2023-06-17T16:16:46.162Z,31.29
2023-06-17T16:19:13.372Z,31.67
2023-06-17T16:21:40.588Z,31.95
2023-06-17T16:24:07.821Z,32.22
2023-06-17T16:26:35.051Z,31.79
2023-06-17T16:29:02.103Z,32.35
2023-06-17T16:31:29.190Z,32.07
2023-06-17T16:33:56.326Z,32.06
2023-06-17T16:36:23.594Z,32.54
2023-06-17T16:38:50.698Z,32.57
2023-06-17T16:41:17.810Z,32.60
2023-06-17T16:43:44.911Z,33.15
2023-06-17T16:46:12.148Z,32.71
2023-06-17T16:48:39.233Z,32.99
2023-06-17T16:51:07.273Z,33.04
2023-06-17T16:53:35.115Z,33.25
2023-06-17T16:56:02.656Z,33.42
2023-06-17T16:58:30.078Z,33.57
2023-06-17T17:00:57.463Z,33.90
2023-06-17T17:03:24.927Z,33.63
2023-06-17T17:05:52.189Z,33.70
2023-06-17T17:08:19.590Z,34.28
2023-06-17T17:10:46.803Z,34.44
2023-06-17T17:13:14.005Z,34.16
2023-06-17T17:15:41.668Z,34.75
2023-06-17T17:18:09.096Z,34.84
2023-06-17T17:20:36.248Z,34.92
2023-06-17T17:23:04.188Z,35.19
2023-06-17T17:25:31.867Z,34.93
2023-06-17T17:27:58.977Z,35.40
2023-06-17T17:30:26.215Z,35.31
2023-06-17T17:32:55.488Z,35.60
2023-06-17T17:35:23.120Z,35.88
2023-06-17T17:37:50.229Z,35.64
2023-06-17T17:40:17.891Z,35.91
2023-06-17T17:42:46.459Z,36.16
2023-06-17T17:45:13.607Z,36.04
2023-06-17T17:47:40.812Z,35.82
2023-06-17T17:50:08.357Z,36.02
2023-06-17T17:52:35.690Z,36.22
2023-06-17T17:55:03.200Z,36.34
2023-06-17T17:57:33.026Z,36.23
2023-06-17T18:00:00.264Z,36.39
2023-06-17T18:02:27.577Z,36.43
2023-06-17T18:04:55.313Z,36.44
2023-06-17T18:07:22.412Z,36.74
2023-06-17T18:09:49.524Z,36.84
2023-06-17T18:12:17.077Z,37.24
2023-06-17T18:14:44.206Z,37.20
2023-06-17T18:17:11.277Z,37.46
2023-06-17T18:19:39.926Z,37.77
2023-06-17T18:22:07.002Z,37.68
2023-06-17T18:24:34.402Z,38.27
2023-06-17T18:27:01.780Z,38.43
2023-06-17T18:29:28.976Z,38.55
2023-06-17T18:31:56.095Z,38.67
2023-06-17T18:34:23.240Z,38.54
2023-06-17T18:36:50.539Z,38.54
2023-06-17T18:39:17.762Z,38.43
2023-06-17T18:41:44.937Z,38.39
2023-06-17T18:44:13.558Z,38.69
2023-06-17T18:46:41.267Z,38.35
2023-06-17T18:49:11.085Z,38.63
2023-06-17T18:51:38.439Z,38.77
2023-06-17T18:54:05.656Z,38.71
2023-06-17T18:56:32.829Z,38.70
2023-06-17T18:59:00.008Z,38.95
2023-06-17T19:01:27.215Z,39.25
2023-06-17T19:03:54.452Z,39.23
2023-06-17T19:06:21.619Z,39.37
2023-06-17T19:08:49.746Z,39.21
2023-06-17T19:11:17.524Z,39.37
2023-06-17T19:13:44.717Z,39.29
2023-06-17T19:16:12.203Z,39.57
2023-06-17T19:18:39.924Z,39.37
2023-06-17T19:21:08.596Z,39.29
2023-06-17T19:23:35.834Z,39.45
2023-06-17T19:26:02.979Z,39.45
2023-06-17T19:28:30.117Z,40.01
2023-06-17T19:30:57.248Z,40.09
2023-06-17T19:33:24.492Z,40.02
2023-06-17T19:35:51.582Z,40.00
2023-06-17T19:38:18.744Z,40.02
2023-06-17T19:40:45.958Z,40.24
2023-06-17T19:43:14.101Z,40.11
2023-06-17T19:45:44.797Z,39.93
2023-06-17T19:48:12.100Z,39.76
2023-06-17T19:50:39.231Z,39.84
2023-06-17T19:53:07.013Z,39.65
2023-06-17T19:55:34.664Z,39.82
2023-06-17T19:58:01.861Z,39.80
2023-06-17T20:00:29.994Z,39.83
2023-06-17T20:02:57.292Z,39.73
2023-06-17T20:05:24.456Z,39.95
2023-06-17T20:07:51.831Z,39.98
2023-06-17T20:10:19.250Z,39.52
2023-06-17T20:12:46.493Z,40.19
2023-06-17T20:15:13.659Z,39.76
2023-06-17T20:17:41.000Z,39.77
2023-06-17T20:20:08.739Z,40.02
2023-06-17T20:22:36.047Z,40.01
2023-06-17T20:25:03.227Z,40.00
2023-06-17T20:27:33.214Z,39.86
2023-06-17T20:30:00.369Z,40.11
2023-06-17T20:32:27.653Z,40.09
2023-06-17T20:34:54.819Z,40.10
2023-06-17T20:37:21.977Z,40.27
2023-06-17T20:39:49.065Z,39.82
2023-06-17T20:42:16.392Z,39.78
2023-06-17T20:44:43.632Z,39.73
2023-06-17T20:47:11.098Z,40.22
2023-06-17T20:49:38.298Z,40.09
2023-06-17T20:52:05.635Z,40.24
2023-06-17T20:54:32.726Z,40.41
2023-06-17T20:56:59.815Z,40.56
2023-06-17T20:59:27.037Z,40.32
2023-06-17T21:01:54.217Z,40.42
2023-06-17T21:04:21.392Z,40.79
2023-06-17T21:06:48.529Z,40.52
2023-06-17T21:09:15.900Z,40.45
2023-06-17T21:11:43.004Z,40.22
2023-06-17T21:14:10.135Z,40.09
2023-06-17T21:16:37.489Z,39.87
2023-06-17T21:19:04.741Z,40.21
2023-06-17T21:21:31.862Z,40.50
2023-06-17T21:23:59.123Z,40.33
2023-06-17T21:26:26.934Z,40.22
2023-06-17T21:28:56.078Z,39.98
2023-06-17T21:31:23.181Z,40.42
2023-06-17T21:33:51.507Z,40.33
2023-06-17T21:36:18.734Z,40.16
2023-06-17T21:38:45.839Z,40.23
2023-06-17T21:41:12.908Z,40.32
2023-06-17T21:43:40.092Z,40.77
2023-06-17T21:46:08.072Z,40.55
2023-06-17T21:48:35.312Z,40.30
2023-06-17T21:51:02.505Z,40.74
2023-06-17T21:53:29.571Z,40.30
2023-06-17T21:55:56.734Z,40.44
2023-06-17T21:58:23.921Z,40.64
2023-06-17T22:00:51.049Z,40.43
2023-06-17T22:03:23.429Z,40.44
2023-06-17T22:05:52.014Z,40.39
2023-06-17T22:08:24.556Z,40.76
2023-06-17T22:10:54.698Z,40.36
2023-06-17T22:13:21.841Z,40.36
2023-06-17T22:15:49.006Z,40.76
2023-06-17T22:18:16.291Z,40.31
2023-06-17T22:20:43.961Z,40.48
2023-06-17T22:23:11.206Z,40.78
2023-06-17T22:25:38.316Z,40.54
2023-06-17T22:28:05.490Z,40.59
2023-06-17T22:30:32.589Z,40.66
2023-06-17T22:32:59.718Z,40.47
2023-06-17T22:35:27.406Z,40.32
2023-06-17T22:37:54.728Z,40.26
2023-06-17T22:40:24.692Z,40.29
2023-06-17T22:42:51.872Z,40.38
2023-06-17T22:45:19.075Z,40.35
2023-06-17T22:47:46.241Z,40.18
2023-06-17T22:50:13.422Z,40.33
2023-06-17T22:52:40.640Z,40.11
2023-06-17T22:55:08.176Z,40.12
2023-06-17T22:57:39.199Z,40.40
2023-06-17T23:00:08.223Z,39.90
2023-06-17T23:02:36.417Z,40.02
2023-06-17T23:05:05.353Z,40.14
2023-06-17T23:07:32.825Z,39.93
2023-06-17T23:10:00.209Z,39.86
2023-06-17T23:12:27.546Z,40.21
2023-06-17T23:14:54.867Z,40.47
2023-06-17T23:17:22.351Z,40.32
2023-06-17T23:19:49.648Z,40.32
2023-06-17T23:22:17.507Z,40.29
2023-06-17T23:24:47.703Z,40.43
2023-06-17T23:27:16.645Z,40.75
2023-06-17T23:29:44.384Z,41.20
2023-06-17T23:32:11.516Z,41.37
2023-06-17T23:34:38.640Z,41.64
2023-06-17T23:37:06.720Z,41.80
2023-06-17T23:39:33.823Z,41.98
2023-06-17T23:42:00.881Z,41.76
2023-06-17T23:44:28.000Z,42.17
2023-06-17T23:46:55.411Z,42.25
2023-06-17T23:49:22.591Z,42.50
2023-06-17T23:51:49.715Z,42.45
2023-06-17T23:54:16.822Z,42.57
2023-06-17T23:56:43.892Z,42.93
2023-06-17T23:59:11.050Z,42.80
